sensor_id;sensor_type;location;lat;lon;timestamp;P1;durP1;ratioP1;P2;durP2;ratioP2
65092;SDS011;52025;50.288;2.794;2023-06-22T05:11:17;7.32;;;3.58;;
65092;SDS011;52025;50.288;2.794;2023-06-22T05:35:08;10.20;;;4.82;;
65092;SDS011;52025;50.288;2.794;2023-06-22T05:37:44;11.07;;;5.70;;
65092;SDS011;52025;50.288;2.794;2023-06-22T05:40:19;10.93;;;4.93;;
65092;SDS011;52025;50.288;2.794;2023-06-22T05:45:40;8.52;;;4.18;;
65092;SDS011;52025;50.288;2.794;2023-06-22T05:48:06;10.15;;;5.60;;
65092;SDS011;52025;50.288;2.794;2023-06-22T05:50:33;11.15;;;5.50;;
65092;SDS011;52025;50.288;2.794;2023-06-22T05:52:59;9.18;;;5.45;;
65092;SDS011;52025;50.288;2.794;2023-06-22T05:55:27;10.10;;;4.68;;
65092;SDS011;52025;50.288;2.794;2023-06-22T05:57:52;9.32;;;4.78;;
65092;SDS011;52025;50.288;2.794;2023-06-22T06:00:20;11.55;;;6.60;;
65092;SDS011;52025;50.288;2.794;2023-06-22T06:02:47;12.75;;;5.30;;
65092;SDS011;52025;50.288;2.794;2023-06-22T06:05:17;13.98;;;6.15;;
65092;SDS011;52025;50.288;2.794;2023-06-22T06:07:52;9.40;;;5.07;;
65092;SDS011;52025;50.288;2.794;2023-06-22T06:13:28;10.57;;;5.30;;
65092;SDS011;52025;50.288;2.794;2023-06-22T06:16:11;9.90;;;5.00;;
65092;SDS011;52025;50.288;2.794;2023-06-22T06:18:42;9.17;;;4.67;;
65092;SDS011;52025;50.288;2.794;2023-06-22T06:21:38;7.78;;;4.00;;
65092;SDS011;52025;50.288;2.794;2023-06-22T06:24:15;6.10;;;3.10;;
65092;SDS011;52025;50.288;2.794;2023-06-22T06:27:03;9.15;;;4.68;;
65092;SDS011;52025;50.288;2.794;2023-06-22T06:29:36;6.28;;;3.17;;
65092;SDS011;52025;50.288;2.794;2023-06-22T06:32:12;5.80;;;2.72;;
65092;SDS011;52025;50.288;2.794;2023-06-22T06:34:39;7.22;;;3.17;;
65092;SDS011;52025;50.288;2.794;2023-06-22T06:37:10;6.40;;;2.80;;
65092;SDS011;52025;50.288;2.794;2023-06-22T06:39:39;4.65;;;2.42;;
65092;SDS011;52025;50.288;2.794;2023-06-22T06:42:07;9.18;;;3.40;;
65092;SDS011;52025;50.288;2.794;2023-06-22T06:44:32;7.47;;;4.00;;
65092;SDS011;52025;50.288;2.794;2023-06-22T06:47:07;7.90;;;3.92;;
65092;SDS011;52025;50.288;2.794;2023-06-22T06:49:50;9.32;;;4.32;;
65092;SDS011;52025;50.288;2.794;2023-06-22T06:52:41;8.45;;;3.78;;
65092;SDS011;52025;50.288;2.794;2023-06-22T06:55:26;10.50;;;3.97;;
65092;SDS011;52025;50.288;2.794;2023-06-22T06:58:05;8.10;;;4.15;;
65092;SDS011;52025;50.288;2.794;2023-06-22T07:00:37;9.55;;;4.38;;
65092;SDS011;52025;50.288;2.794;2023-06-22T07:03:05;7.07;;;3.33;;
65092;SDS011;52025;50.288;2.794;2023-06-22T07:21:07;7.65;;;4.13;;
65092;SDS011;52025;50.288;2.794;2023-06-22T07:26:50;7.80;;;3.65;;
65092;SDS011;52025;50.288;2.794;2023-06-22T07:29:45;7.50;;;4.28;;
65092;SDS011;52025;50.288;2.794;2023-06-22T07:32:15;8.32;;;4.03;;
65092;SDS011;52025;50.288;2.794;2023-06-22T07:35:04;7.47;;;4.07;;
65092;SDS011;52025;50.288;2.794;2023-06-22T07:37:39;9.93;;;4.28;;
65092;SDS011;52025;50.288;2.794;2023-06-22T07:40:30;11.98;;;3.85;;
65092;SDS011;52025;50.288;2.794;2023-06-22T07:55:42;8.40;;;3.50;;
65092;SDS011;52025;50.288;2.794;2023-06-22T08:01:34;6.75;;;3.17;;
65092;SDS011;52025;50.288;2.794;2023-06-22T08:04:40;10.38;;;4.25;;
65092;SDS011;52025;50.288;2.794;2023-06-22T08:10:20;6.90;;;3.15;;
65092;SDS011;52025;50.288;2.794;2023-06-22T08:12:46;9.48;;;3.53;;
65092;SDS011;52025;50.288;2.794;2023-06-22T08:15:19;6.38;;;2.90;;
65092;SDS011;52025;50.288;2.794;2023-06-22T08:17:57;12.55;;;3.97;;
65092;SDS011;52025;50.288;2.794;2023-06-22T08:20:27;9.13;;;3.53;;
65092;SDS011;52025;50.288;2.794;2023-06-22T08:22:53;7.45;;;3.70;;
65092;SDS011;52025;50.288;2.794;2023-06-22T08:25:21;7.93;;;3.58;;
65092;SDS011;52025;50.288;2.794;2023-06-22T08:30:59;8.90;;;3.45;;
65092;SDS011;52025;50.288;2.794;2023-06-22T08:33:32;8.20;;;4.03;;
65092;SDS011;52025;50.288;2.794;2023-06-22T08:36:00;6.95;;;3.63;;
65092;SDS011;52025;50.288;2.794;2023-06-22T08:38:40;7.15;;;3.42;;
65092;SDS011;52025;50.288;2.794;2023-06-22T08:41:09;8.57;;;3.25;;
65092;SDS011;52025;50.288;2.794;2023-06-22T08:43:37;7.53;;;3.63;;
65092;SDS011;52025;50.288;2.794;2023-06-22T08:46:30;7.00;;;3.65;;
65092;SDS011;52025;50.288;2.794;2023-06-22T08:49:07;6.80;;;3.28;;
65092;SDS011;52025;50.288;2.794;2023-06-22T08:51:55;6.70;;;3.38;;
65092;SDS011;52025;50.288;2.794;2023-06-22T08:54:40;6.95;;;3.70;;
65092;SDS011;52025;50.288;2.794;2023-06-22T08:57:46;7.78;;;3.35;;
65092;SDS011;52025;50.288;2.794;2023-06-22T09:00:14;11.20;;;3.30;;
65092;SDS011;52025;50.288;2.794;2023-06-22T09:02:47;7.47;;;3.42;;
65092;SDS011;52025;50.288;2.794;2023-06-22T09:05:23;6.38;;;3.10;;
65092;SDS011;52025;50.288;2.794;2023-06-22T09:07:57;7.65;;;3.30;;
65092;SDS011;52025;50.288;2.794;2023-06-22T09:10:46;6.50;;;3.20;;
65092;SDS011;52025;50.288;2.794;2023-06-22T09:13:11;7.97;;;3.33;;
65092;SDS011;52025;50.288;2.794;2023-06-22T09:15:49;7.43;;;2.72;;
65092;SDS011;52025;50.288;2.794;2023-06-22T09:18:19;8.52;;;3.53;;
65092;SDS011;52025;50.288;2.794;2023-06-22T09:20:50;7.93;;;3.38;;
65092;SDS011;52025;50.288;2.794;2023-06-22T09:23:26;8.32;;;4.47;;
65092;SDS011;52025;50.288;2.794;2023-06-22T09:26:09;9.00;;;3.08;;
65092;SDS011;52025;50.288;2.794;2023-06-22T09:37:47;8.32;;;3.97;;
65092;SDS011;52025;50.288;2.794;2023-06-22T09:40:30;8.52;;;3.55;;
65092;SDS011;52025;50.288;2.794;2023-06-22T09:43:12;7.53;;;3.83;;
65092;SDS011;52025;50.288;2.794;2023-06-22T09:48:14;7.45;;;3.65;;
65092;SDS011;52025;50.288;2.794;2023-06-22T09:50:55;8.75;;;4.22;;
65092;SDS011;52025;50.288;2.794;2023-06-22T09:53:27;10.48;;;4.13;;
65092;SDS011;52025;50.288;2.794;2023-06-22T09:55:53;8.18;;;4.22;;
65092;SDS011;52025;50.288;2.794;2023-06-22T09:58:29;9.82;;;4.35;;
65092;SDS011;52025;50.288;2.794;2023-06-22T10:09:11;10.50;;;4.95;;
65092;SDS011;52025;50.288;2.794;2023-06-22T10:14:50;10.70;;;4.28;;
65092;SDS011;52025;50.288;2.794;2023-06-22T10:26:42;10.98;;;4.60;;
65092;SDS011;52025;50.288;2.794;2023-06-22T10:29:44;9.75;;;4.60;;
65092;SDS011;52025;50.288;2.794;2023-06-22T10:38:49;11.15;;;4.85;;
65092;SDS011;52025;50.288;2.794;2023-06-22T10:44:39;10.60;;;5.05;;
65092;SDS011;52025;50.288;2.794;2023-06-22T10:56:21;9.95;;;5.50;;
65092;SDS011;52025;50.288;2.794;2023-06-22T11:01:51;9.38;;;4.90;;
65092;SDS011;52025;50.288;2.794;2023-06-22T11:04:40;7.82;;;4.38;;
65092;SDS011;52025;50.288;2.794;2023-06-22T11:09:57;8.20;;;4.55;;
65092;SDS011;52025;50.288;2.794;2023-06-22T11:12:43;11.15;;;5.50;;
65092;SDS011;52025;50.288;2.794;2023-06-22T11:18:42;10.05;;;4.93;;
65092;SDS011;52025;50.288;2.794;2023-06-22T11:21:46;10.25;;;5.70;;
65092;SDS011;52025;50.288;2.794;2023-06-22T11:24:21;14.57;;;6.10;;
65092;SDS011;52025;50.288;2.794;2023-06-22T11:30:21;10.05;;;5.50;;
65092;SDS011;52025;50.288;2.794;2023-06-22T11:32:49;11.23;;;5.80;;
65092;SDS011;52025;50.288;2.794;2023-06-22T11:35:16;13.25;;;5.57;;
65092;SDS011;52025;50.288;2.794;2023-06-22T11:37:42;10.88;;;6.50;;
65092;SDS011;52025;50.288;2.794;2023-06-22T11:40:10;11.38;;;5.90;;
65092;SDS011;52025;50.288;2.794;2023-06-22T11:43:11;12.13;;;5.43;;
65092;SDS011;52025;50.288;2.794;2023-06-22T11:45:36;9.60;;;5.53;;
65092;SDS011;52025;50.288;2.794;2023-06-22T11:57:37;10.80;;;5.68;;
65092;SDS011;52025;50.288;2.794;2023-06-22T12:23:48;10.95;;;6.30;;
65092;SDS011;52025;50.288;2.794;2023-06-22T12:48:08;12.38;;;5.90;;
65092;SDS011;52025;50.288;2.794;2023-06-22T13:00:12;15.57;;;7.80;;
65092;SDS011;52025;50.288;2.794;2023-06-22T13:05:23;12.23;;;5.85;;
65092;SDS011;52025;50.288;2.794;2023-06-22T15:19:52;6.18;;;2.90;;
65092;SDS011;52025;50.288;2.794;2023-06-22T16:39:33;6.65;;;2.70;;
65092;SDS011;52025;50.288;2.794;2023-06-22T16:42:07;8.15;;;2.97;;
65092;SDS011;52025;50.288;2.794;2023-06-22T16:44:53;5.07;;;2.85;;
65092;SDS011;52025;50.288;2.794;2023-06-22T16:47:22;7.25;;;2.90;;
65092;SDS011;52025;50.288;2.794;2023-06-22T16:53:08;5.82;;;2.33;;
65092;SDS011;52025;50.288;2.794;2023-06-22T16:55:47;6.05;;;2.70;;
65092;SDS011;52025;50.288;2.794;2023-06-22T17:03:53;6.53;;;2.45;;
65092;SDS011;52025;50.288;2.794;2023-06-22T17:06:36;5.00;;;2.47;;
65092;SDS011;52025;50.288;2.794;2023-06-22T17:09:09;5.47;;;2.28;;
65092;SDS011;52025;50.288;2.794;2023-06-22T17:11:37;4.30;;;2.10;;
65092;SDS011;52025;50.288;2.794;2023-06-22T17:14:07;3.85;;;1.45;;
65092;SDS011;52025;50.288;2.794;2023-06-22T17:16:32;3.58;;;2.15;;
65092;SDS011;52025;50.288;2.794;2023-06-22T17:22:15;6.97;;;3.25;;
65092;SDS011;52025;50.288;2.794;2023-06-22T17:25:14;5.28;;;1.88;;
65092;SDS011;52025;50.288;2.794;2023-06-22T17:27:39;5.35;;;2.00;;
65092;SDS011;52025;50.288;2.794;2023-06-22T17:30:09;5.07;;;1.85;;
65092;SDS011;52025;50.288;2.794;2023-06-22T17:32:34;4.55;;;2.15;;
65092;SDS011;52025;50.288;2.794;2023-06-22T17:35:00;3.70;;;1.77;;
65092;SDS011;52025;50.288;2.794;2023-06-22T17:37:26;6.05;;;2.20;;
65092;SDS011;52025;50.288;2.794;2023-06-22T17:40:07;4.32;;;1.80;;
65092;SDS011;52025;50.288;2.794;2023-06-22T17:42:38;4.07;;;1.70;;
65092;SDS011;52025;50.288;2.794;2023-06-22T18:36:31;3.75;;;1.65;;
65092;SDS011;52025;50.288;2.794;2023-06-22T18:39:04;4.27;;;1.77;;
